Tuckerman, Arkansas
Current Conditions -  °F | °C
As of 11:56 PM on Sunday 25 Jan 2015 (Local Time) from KM19 Reporting Station
Overcast Overcast  
Wind Chill: 33°   Ceiling: 2600
Heat Index: 41°   Visibility: 10mi
Dew Point: 33°   Wind: 16mph
Humidity: 73%   Direction: 340°NNW
Pressure: 30.02"   Gusts: NA
Location:  35.73°N, 91.2°W
Report Text: KM19 260556Z AUTO 34014KT 10SM OVC026 05/01 A3002 RMK AO2 53027 T00500005 10072 20044 401500016 SLP166
Loading
Personal Weather Stations






























Interactive Weather Map New forecast layout! Learn more

10-Day Weather Forecast

Advertisements
Track Severe Weather on mobile